sensor_id;sensor_type;location;lat;lon;timestamp;P1;durP1;ratioP1;P2;durP2;ratioP2
2860;SDS011;1438;50.922;6.704;2023-05-01T00:00:03;2.23;;;1.70;;
2860;SDS011;1438;50.922;6.704;2023-05-01T00:02:30;5.67;;;2.50;;
2860;SDS011;1438;50.922;6.704;2023-05-01T00:04:56;7.10;;;2.20;;
2860;SDS011;1438;50.922;6.704;2023-05-01T00:07:22;2.67;;;2.20;;
2860;SDS011;1438;50.922;6.704;2023-05-01T00:09:54;6.60;;;2.50;;
2860;SDS011;1438;50.922;6.704;2023-05-01T00:12:20;2.80;;;2.10;;
2860;SDS011;1438;50.922;6.704;2023-05-01T00:14:46;2.93;;;2.13;;
2860;SDS011;1438;50.922;6.704;2023-05-01T00:17:12;4.53;;;2.00;;
2860;SDS011;1438;50.922;6.704;2023-05-01T00:19:38;2.90;;;2.17;;
2860;SDS011;1438;50.922;6.704;2023-05-01T00:22:05;2.03;;;1.93;;
2860;SDS011;1438;50.922;6.704;2023-05-01T00:24:31;2.53;;;2.33;;
2860;SDS011;1438;50.922;6.704;2023-05-01T00:26:57;3.10;;;2.30;;
2860;SDS011;1438;50.922;6.704;2023-05-01T00:29:23;3.23;;;2.50;;
2860;SDS011;1438;50.922;6.704;2023-05-01T00:31:49;3.77;;;2.27;;
2860;SDS011;1438;50.922;6.704;2023-05-01T00:34:15;5.80;;;2.47;;
2860;SDS011;1438;50.922;6.704;2023-05-01T00:36:41;2.70;;;2.50;;
2860;SDS011;1438;50.922;6.704;2023-05-01T00:39:07;2.63;;;2.40;;
2860;SDS011;1438;50.922;6.704;2023-05-01T00:41:33;2.53;;;2.30;;
2860;SDS011;1438;50.922;6.704;2023-05-01T00:43:59;2.80;;;2.60;;
2860;SDS011;1438;50.922;6.704;2023-05-01T00:46:26;7.83;;;2.40;;
2860;SDS011;1438;50.922;6.704;2023-05-01T00:48:54;4.07;;;2.70;;
2860;SDS011;1438;50.922;6.704;2023-05-01T00:51:20;3.03;;;2.53;;
2860;SDS011;1438;50.922;6.704;2023-05-01T00:53:46;3.73;;;2.67;;
2860;SDS011;1438;50.922;6.704;2023-05-01T00:56:12;4.43;;;2.60;;
2860;SDS011;1438;50.922;6.704;2023-05-01T00:58:39;2.60;;;2.40;;
2860;SDS011;1438;50.922;6.704;2023-05-01T01:01:06;4.03;;;2.50;;
2860;SDS011;1438;50.922;6.704;2023-05-01T01:03:34;8.27;;;2.80;;
2860;SDS011;1438;50.922;6.704;2023-05-01T01:06:06;3.20;;;2.30;;
2860;SDS011;1438;50.922;6.704;2023-05-01T01:08:33;2.83;;;2.40;;
2860;SDS011;1438;50.922;6.704;2023-05-01T01:11:23;3.07;;;2.80;;
2860;SDS011;1438;50.922;6.704;2023-05-01T01:14:05;3.93;;;2.57;;
2860;SDS011;1438;50.922;6.704;2023-05-01T01:21:38;2.30;;;2.10;;
2860;SDS011;1438;50.922;6.704;2023-05-01T01:26:32;2.60;;;2.30;;
2860;SDS011;1438;50.922;6.704;2023-05-01T01:29:16;2.40;;;2.20;;
2860;SDS011;1438;50.922;6.704;2023-05-01T01:32:08;3.50;;;2.40;;
2860;SDS011;1438;50.922;6.704;2023-05-01T01:34:39;2.30;;;1.97;;
2860;SDS011;1438;50.922;6.704;2023-05-01T01:37:42;4.20;;;2.40;;
2860;SDS011;1438;50.922;6.704;2023-05-01T01:40:02;6.70;;;3.10;;
2860;SDS011;1438;50.922;6.704;2023-05-01T01:43:16;2.87;;;2.40;;
2860;SDS011;1438;50.922;6.704;2023-05-01T01:45:18;4.73;;;2.80;;
2860;SDS011;1438;50.922;6.704;2023-05-01T01:47:47;3.83;;;2.73;;
2860;SDS011;1438;50.922;6.704;2023-05-01T01:50:14;2.97;;;2.67;;
2860;SDS011;1438;50.922;6.704;2023-05-01T01:52:42;4.80;;;2.80;;
2860;SDS011;1438;50.922;6.704;2023-05-01T01:55:10;2.87;;;2.60;;
2860;SDS011;1438;50.922;6.704;2023-05-01T01:57:37;4.10;;;3.30;;
2860;SDS011;1438;50.922;6.704;2023-05-01T02:00:05;5.03;;;2.70;;
2860;SDS011;1438;50.922;6.704;2023-05-01T02:02:33;7.17;;;2.50;;
2860;SDS011;1438;50.922;6.704;2023-05-01T02:05:01;3.50;;;2.87;;
2860;SDS011;1438;50.922;6.704;2023-05-01T02:07:28;6.10;;;2.90;;
2860;SDS011;1438;50.922;6.704;2023-05-01T02:09:55;3.77;;;2.80;;
2860;SDS011;1438;50.922;6.704;2023-05-01T02:12:21;4.30;;;2.80;;
2860;SDS011;1438;50.922;6.704;2023-05-01T02:14:48;14.97;;;2.93;;
2860;SDS011;1438;50.922;6.704;2023-05-01T02:17:15;3.27;;;2.47;;
2860;SDS011;1438;50.922;6.704;2023-05-01T02:19:42;4.57;;;2.70;;
2860;SDS011;1438;50.922;6.704;2023-05-01T02:22:09;2.90;;;2.50;;
2860;SDS011;1438;50.922;6.704;2023-05-01T02:24:36;3.13;;;2.17;;
2860;SDS011;1438;50.922;6.704;2023-05-01T02:27:06;2.80;;;2.60;;
2860;SDS011;1438;50.922;6.704;2023-05-01T02:29:33;4.20;;;2.77;;
2860;SDS011;1438;50.922;6.704;2023-05-01T02:31:59;4.73;;;3.10;;
2860;SDS011;1438;50.922;6.704;2023-05-01T02:34:25;6.47;;;2.63;;
2860;SDS011;1438;50.922;6.704;2023-05-01T02:36:52;4.80;;;2.80;;
2860;SDS011;1438;50.922;6.704;2023-05-01T02:39:18;3.70;;;2.70;;
2860;SDS011;1438;50.922;6.704;2023-05-01T02:41:44;2.97;;;2.67;;
2860;SDS011;1438;50.922;6.704;2023-05-01T02:44:10;4.50;;;2.90;;
2860;SDS011;1438;50.922;6.704;2023-05-01T02:46:37;3.80;;;3.27;;
2860;SDS011;1438;50.922;6.704;2023-05-01T02:49:03;2.93;;;2.63;;
2860;SDS011;1438;50.922;6.704;2023-05-01T02:51:30;4.37;;;3.03;;
2860;SDS011;1438;50.922;6.704;2023-05-01T02:53:57;3.33;;;3.00;;
2860;SDS011;1438;50.922;6.704;2023-05-01T02:56:26;5.30;;;3.07;;
2860;SDS011;1438;50.922;6.704;2023-05-01T02:58:53;3.30;;;2.87;;
2860;SDS011;1438;50.922;6.704;2023-05-01T03:01:19;7.07;;;2.70;;
2860;SDS011;1438;50.922;6.704;2023-05-01T03:03:45;3.80;;;3.10;;
2860;SDS011;1438;50.922;6.704;2023-05-01T03:06:11;7.27;;;3.23;;
2860;SDS011;1438;50.922;6.704;2023-05-01T03:08:40;3.07;;;2.77;;
2860;SDS011;1438;50.922;6.704;2023-05-01T03:11:07;6.03;;;2.90;;
2860;SDS011;1438;50.922;6.704;2023-05-01T03:13:33;5.00;;;3.40;;
2860;SDS011;1438;50.922;6.704;2023-05-01T03:15:59;2.60;;;2.40;;
2860;SDS011;1438;50.922;6.704;2023-05-01T03:18:26;4.50;;;2.87;;
2860;SDS011;1438;50.922;6.704;2023-05-01T03:20:52;4.20;;;2.60;;
2860;SDS011;1438;50.922;6.704;2023-05-01T03:23:19;3.33;;;3.03;;
2860;SDS011;1438;50.922;6.704;2023-05-01T03:25:45;3.47;;;2.90;;
2860;SDS011;1438;50.922;6.704;2023-05-01T03:28:11;4.50;;;3.23;;
2860;SDS011;1438;50.922;6.704;2023-05-01T03:30:38;4.33;;;3.13;;
2860;SDS011;1438;50.922;6.704;2023-05-01T03:33:04;6.53;;;3.40;;
2860;SDS011;1438;50.922;6.704;2023-05-01T03:35:30;4.93;;;3.00;;
2860;SDS011;1438;50.922;6.704;2023-05-01T03:37:56;4.20;;;3.70;;
2860;SDS011;1438;50.922;6.704;2023-05-01T03:40:22;5.17;;;2.80;;
2860;SDS011;1438;50.922;6.704;2023-05-01T03:42:48;4.30;;;3.43;;
2860;SDS011;1438;50.922;6.704;2023-05-01T03:45:14;5.20;;;3.40;;
2860;SDS011;1438;50.922;6.704;2023-05-01T03:47:40;4.13;;;3.50;;
2860;SDS011;1438;50.922;6.704;2023-05-01T03:50:06;4.90;;;3.37;;
2860;SDS011;1438;50.922;6.704;2023-05-01T03:52:33;3.90;;;3.40;;
2860;SDS011;1438;50.922;6.704;2023-05-01T03:54:59;5.30;;;3.83;;
2860;SDS011;1438;50.922;6.704;2023-05-01T03:57:25;5.37;;;3.73;;
2860;SDS011;1438;50.922;6.704;2023-05-01T03:59:51;5.40;;;3.40;;
2860;SDS011;1438;50.922;6.704;2023-05-01T04:02:18;3.73;;;3.43;;
2860;SDS011;1438;50.922;6.704;2023-05-01T04:04:44;4.57;;;3.20;;
2860;SDS011;1438;50.922;6.704;2023-05-01T04:07:10;5.13;;;3.40;;
2860;SDS011;1438;50.922;6.704;2023-05-01T04:09:36;4.37;;;3.50;;
2860;SDS011;1438;50.922;6.704;2023-05-01T04:12:02;4.10;;;3.70;;
2860;SDS011;1438;50.922;6.704;2023-05-01T04:14:28;5.63;;;3.50;;
2860;SDS011;1438;50.922;6.704;2023-05-01T04:16:55;4.20;;;3.80;;
2860;SDS011;1438;50.922;6.704;2023-05-01T04:19:21;4.15;;;3.70;;
2860;SDS011;1438;50.922;6.704;2023-05-01T04:21:47;5.63;;;3.60;;
2860;SDS011;1438;50.922;6.704;2023-05-01T04:24:13;5.33;;;3.60;;
2860;SDS011;1438;50.922;6.704;2023-05-01T04:26:40;5.57;;;3.58;;
2860;SDS011;1438;50.922;6.704;2023-05-01T04:29:06;4.22;;;3.17;;
2860;SDS011;1438;50.922;6.704;2023-05-01T04:31:32;4.30;;;3.90;;
2860;SDS011;1438;50.922;6.704;2023-05-01T04:33:59;7.35;;;4.20;;
2860;SDS011;1438;50.922;6.704;2023-05-01T04:36:25;4.00;;;3.70;;
2860;SDS011;1438;50.922;6.704;2023-05-01T04:38:51;4.18;;;3.78;;
2860;SDS011;1438;50.922;6.704;2023-05-01T04:41:17;4.47;;;3.80;;
2860;SDS011;1438;50.922;6.704;2023-05-01T04:43:43;4.35;;;3.60;;
2860;SDS011;1438;50.922;6.704;2023-05-01T04:46:09;5.00;;;4.10;;
2860;SDS011;1438;50.922;6.704;2023-05-01T04:48:35;4.43;;;3.95;;
2860;SDS011;1438;50.922;6.704;2023-05-01T04:51:01;4.37;;;3.30;;
2860;SDS011;1438;50.922;6.704;2023-05-01T04:53:28;5.45;;;3.75;;
2860;SDS011;1438;50.922;6.704;2023-05-01T04:55:54;12.25;;;3.60;;
2860;SDS011;1438;50.922;6.704;2023-05-01T04:58:20;6.25;;;4.30;;
2860;SDS011;1438;50.922;6.704;2023-05-01T05:00:46;5.10;;;3.80;;
2860;SDS011;1438;50.922;6.704;2023-05-01T05:03:12;5.23;;;3.00;;
2860;SDS011;1438;50.922;6.704;2023-05-01T05:05:42;3.57;;;3.23;;
2860;SDS011;1438;50.922;6.704;2023-05-01T05:08:09;5.77;;;4.17;;
2860;SDS011;1438;50.922;6.704;2023-05-01T05:10:35;4.97;;;3.37;;
2860;SDS011;1438;50.922;6.704;2023-05-01T05:13:01;4.50;;;3.47;;
2860;SDS011;1438;50.922;6.704;2023-05-01T05:15:27;5.17;;;4.17;;
2860;SDS011;1438;50.922;6.704;2023-05-01T05:17:53;7.60;;;3.73;;
2860;SDS011;1438;50.922;6.704;2023-05-01T05:20:19;6.37;;;3.60;;
2860;SDS011;1438;50.922;6.704;2023-05-01T05:22:45;4.93;;;3.50;;
2860;SDS011;1438;50.922;6.704;2023-05-01T05:25:11;4.33;;;3.60;;
2860;SDS011;1438;50.922;6.704;2023-05-01T05:27:37;4.40;;;3.87;;
2860;SDS011;1438;50.922;6.704;2023-05-01T05:30:06;6.10;;;3.60;;
2860;SDS011;1438;50.922;6.704;2023-05-01T05:32:32;4.40;;;3.57;;
2860;SDS011;1438;50.922;6.704;2023-05-01T05:34:59;11.00;;;3.70;;
2860;SDS011;1438;50.922;6.704;2023-05-01T05:37:25;4.43;;;3.00;;
2860;SDS011;1438;50.922;6.704;2023-05-01T05:39:51;5.30;;;3.83;;
2860;SDS011;1438;50.922;6.704;2023-05-01T05:42:17;5.70;;;4.10;;
2860;SDS011;1438;50.922;6.704;2023-05-01T05:44:43;6.00;;;3.20;;
2860;SDS011;1438;50.922;6.704;2023-05-01T05:47:09;4.30;;;3.43;;
2860;SDS011;1438;50.922;6.704;2023-05-01T05:49:35;4.20;;;2.93;;
2860;SDS011;1438;50.922;6.704;2023-05-01T05:52:01;5.23;;;4.00;;
2860;SDS011;1438;50.922;6.704;2023-05-01T05:54:27;4.47;;;3.10;;
2860;SDS011;1438;50.922;6.704;2023-05-01T05:56:53;6.60;;;3.17;;
2860;SDS011;1438;50.922;6.704;2023-05-01T05:59:19;3.67;;;3.33;;
2860;SDS011;1438;50.922;6.704;2023-05-01T06:01:45;7.30;;;3.57;;
2860;SDS011;1438;50.922;6.704;2023-05-01T06:04:11;6.03;;;3.13;;
2860;SDS011;1438;50.922;6.704;2023-05-01T06:06:39;7.13;;;3.50;;
2860;SDS011;1438;50.922;6.704;2023-05-01T06:09:05;4.30;;;3.37;;
2860;SDS011;1438;50.922;6.704;2023-05-01T06:11:32;7.27;;;3.50;;
2860;SDS011;1438;50.922;6.704;2023-05-01T06:13:58;4.43;;;3.57;;
2860;SDS011;1438;50.922;6.704;2023-05-01T06:16:26;5.83;;;3.30;;
2860;SDS011;1438;50.922;6.704;2023-05-01T06:18:52;4.23;;;3.33;;
2860;SDS011;1438;50.922;6.704;2023-05-01T06:21:18;3.30;;;2.60;;
2860;SDS011;1438;50.922;6.704;2023-05-01T06:23:44;7.10;;;3.80;;
2860;SDS011;1438;50.922;6.704;2023-05-01T06:26:10;6.00;;;3.47;;
2860;SDS011;1438;50.922;6.704;2023-05-01T06:28:36;5.80;;;2.90;;
2860;SDS011;1438;50.922;6.704;2023-05-01T06:31:02;4.90;;;2.77;;
2860;SDS011;1438;50.922;6.704;2023-05-01T06:33:29;3.43;;;3.13;;
2860;SDS011;1438;50.922;6.704;2023-05-01T06:35:55;4.73;;;3.20;;
2860;SDS011;1438;50.922;6.704;2023-05-01T06:38:23;4.27;;;2.97;;
2860;SDS011;1438;50.922;6.704;2023-05-01T06:40:49;4.70;;;3.60;;
2860;SDS011;1438;50.922;6.704;2023-05-01T06:43:15;6.73;;;3.73;;
2860;SDS011;1438;50.922;6.704;2023-05-01T06:45:41;3.73;;;3.20;;
2860;SDS011;1438;50.922;6.704;2023-05-01T06:48:07;6.83;;;3.70;;
2860;SDS011;1438;50.922;6.704;2023-05-01T06:50:33;3.37;;;2.83;;
2860;SDS011;1438;50.922;6.704;2023-05-01T06:52:59;4.60;;;3.60;;
2860;SDS011;1438;50.922;6.704;2023-05-01T06:55:26;4.33;;;3.10;;
2860;SDS011;1438;50.922;6.704;2023-05-01T06:57:55;4.97;;;2.93;;
2860;SDS011;1438;50.922;6.704;2023-05-01T07:00:21;4.53;;;2.80;;
2860;SDS011;1438;50.922;6.704;2023-05-01T07:02:47;8.60;;;3.30;;
2860;SDS011;1438;50.922;6.704;2023-05-01T07:05:13;3.77;;;3.47;;
2860;SDS011;1438;50.922;6.704;2023-05-01T07:07:39;3.83;;;2.97;;
2860;SDS011;1438;50.922;6.704;2023-05-01T07:10:06;3.33;;;3.03;;
2860;SDS011;1438;50.922;6.704;2023-05-01T07:12:32;3.93;;;3.03;;
2860;SDS011;1438;50.922;6.704;2023-05-01T07:14:58;5.93;;;3.20;;
2860;SDS011;1438;50.922;6.704;2023-05-01T07:17:24;6.80;;;3.23;;
2860;SDS011;1438;50.922;6.704;2023-05-01T07:19:50;4.33;;;2.67;;
2860;SDS011;1438;50.922;6.704;2023-05-01T07:22:17;4.47;;;2.83;;
2860;SDS011;1438;50.922;6.704;2023-05-01T07:24:43;3.10;;;2.80;;
2860;SDS011;1438;50.922;6.704;2023-05-01T07:27:09;4.93;;;3.27;;
2860;SDS011;1438;50.922;6.704;2023-05-01T07:29:37;4.07;;;3.03;;
2860;SDS011;1438;50.922;6.704;2023-05-01T07:32:04;4.87;;;3.27;;
2860;SDS011;1438;50.922;6.704;2023-05-01T07:34:30;3.93;;;2.93;;
2860;SDS011;1438;50.922;6.704;2023-05-01T07:36:56;3.63;;;2.60;;
2860;SDS011;1438;50.922;6.704;2023-05-01T07:39:22;5.07;;;3.10;;
2860;SDS011;1438;50.922;6.704;2023-05-01T07:41:48;3.63;;;2.63;;
2860;SDS011;1438;50.922;6.704;2023-05-01T07:44:14;4.30;;;2.50;;
2860;SDS011;1438;50.922;6.704;2023-05-01T07:46:40;4.23;;;2.60;;
2860;SDS011;1438;50.922;6.704;2023-05-01T07:49:07;3.90;;;3.40;;
2860;SDS011;1438;50.922;6.704;2023-05-01T07:51:33;3.10;;;2.73;;
2860;SDS011;1438;50.922;6.704;2023-05-01T07:53:59;4.17;;;2.47;;
2860;SDS011;1438;50.922;6.704;2023-05-01T07:56:31;3.50;;;2.13;;
2860;SDS011;1438;50.922;6.704;2023-05-01T07:58:57;4.37;;;2.43;;
2860;SDS011;1438;50.922;6.704;2023-05-01T08:01:23;3.57;;;2.37;;
2860;SDS011;1438;50.922;6.704;2023-05-01T08:03:49;2.63;;;2.10;;
2860;SDS011;1438;50.922;6.704;2023-05-01T08:06:15;3.20;;;2.10;;
2860;SDS011;1438;50.922;6.704;2023-05-01T08:08:41;4.10;;;2.27;;
2860;SDS011;1438;50.922;6.704;2023-05-01T08:11:07;2.10;;;1.90;;
2860;SDS011;1438;50.922;6.704;2023-05-01T08:13:34;2.23;;;2.03;;
2860;SDS011;1438;50.922;6.704;2023-05-01T08:16:03;2.87;;;2.57;;
2860;SDS011;1438;50.922;6.704;2023-05-01T08:18:29;2.50;;;2.30;;
2860;SDS011;1438;50.922;6.704;2023-05-01T08:20:55;4.90;;;2.30;;
2860;SDS011;1438;50.922;6.704;2023-05-01T08:23:21;2.80;;;2.00;;
2860;SDS011;1438;50.922;6.704;2023-05-01T08:25:50;2.77;;;2.57;;
2860;SDS011;1438;50.922;6.704;2023-05-01T08:28:16;2.73;;;2.50;;
2860;SDS011;1438;50.922;6.704;2023-05-01T08:30:44;2.90;;;2.30;;
2860;SDS011;1438;50.922;6.704;2023-05-01T08:33:10;3.30;;;2.77;;
2860;SDS011;1438;50.922;6.704;2023-05-01T08:35:36;3.07;;;2.40;;
2860;SDS011;1438;50.922;6.704;2023-05-01T08:38:02;3.20;;;2.73;;
2860;SDS011;1438;50.922;6.704;2023-05-01T08:40:30;3.13;;;2.40;;
2860;SDS011;1438;50.922;6.704;2023-05-01T08:42:57;5.30;;;1.97;;
2860;SDS011;1438;50.922;6.704;2023-05-01T08:45:24;3.03;;;2.30;;
2860;SDS011;1438;50.922;6.704;2023-05-01T08:47:50;3.30;;;2.20;;
2860;SDS011;1438;50.922;6.704;2023-05-01T08:50:18;2.87;;;2.40;;
2860;SDS011;1438;50.922;6.704;2023-05-01T08:52:44;4.70;;;2.50;;
2860;SDS011;1438;50.922;6.704;2023-05-01T08:55:11;3.90;;;2.20;;
2860;SDS011;1438;50.922;6.704;2023-05-01T08:57:38;2.80;;;2.30;;
2860;SDS011;1438;50.922;6.704;2023-05-01T09:00:05;2.50;;;2.30;;
2860;SDS011;1438;50.922;6.704;2023-05-01T09:02:33;3.13;;;2.47;;
2860;SDS011;1438;50.922;6.704;2023-05-01T09:04:59;3.67;;;2.33;;
2860;SDS011;1438;50.922;6.704;2023-05-01T09:07:28;7.17;;;4.63;;
2860;SDS011;1438;50.922;6.704;2023-05-01T09:09:54;3.63;;;2.93;;
2860;SDS011;1438;50.922;6.704;2023-05-01T09:14:47;4.03;;;2.37;;
2860;SDS011;1438;50.922;6.704;2023-05-01T09:17:13;3.47;;;2.27;;
2860;SDS011;1438;50.922;6.704;2023-05-01T09:19:39;2.77;;;2.57;;
2860;SDS011;1438;50.922;6.704;2023-05-01T09:22:06;3.10;;;2.47;;
2860;SDS011;1438;50.922;6.704;2023-05-01T09:24:32;3.93;;;2.87;;
2860;SDS011;1438;50.922;6.704;2023-05-01T09:26:58;3.60;;;2.40;;
2860;SDS011;1438;50.922;6.704;2023-05-01T09:29:41;3.80;;;2.60;;
2860;SDS011;1438;50.922;6.704;2023-05-01T09:34:40;2.20;;;2.00;;
2860;SDS011;1438;50.922;6.704;2023-05-01T09:37:07;2.70;;;2.37;;
2860;SDS011;1438;50.922;6.704;2023-05-01T09:39:33;6.13;;;2.40;;
2860;SDS011;1438;50.922;6.704;2023-05-01T09:41:59;2.60;;;2.40;;
2860;SDS011;1438;50.922;6.704;2023-05-01T09:44:27;4.27;;;2.50;;
2860;SDS011;1438;50.922;6.704;2023-05-01T09:46:53;2.57;;;2.37;;
2860;SDS011;1438;50.922;6.704;2023-05-01T09:49:19;3.27;;;1.97;;
2860;SDS011;1438;50.922;6.704;2023-05-01T09:51:45;1.67;;;1.53;;
2860;SDS011;1438;50.922;6.704;2023-05-01T09:54:18;1.90;;;1.70;;
2860;SDS011;1438;50.922;6.704;2023-05-01T09:56:45;3.33;;;2.00;;
2860;SDS011;1438;50.922;6.704;2023-05-01T09:59:20;3.40;;;1.60;;
2860;SDS011;1438;50.922;6.704;2023-05-01T10:01:46;2.90;;;1.50;;
2860;SDS011;1438;50.922;6.704;2023-05-01T10:04:13;2.00;;;1.90;;
2860;SDS011;1438;50.922;6.704;2023-05-01T10:06:40;2.93;;;1.90;;
2860;SDS011;1438;50.922;6.704;2023-05-01T10:09:06;3.47;;;2.00;;
2860;SDS011;1438;50.922;6.704;2023-05-01T10:11:50;3.50;;;1.93;;
2860;SDS011;1438;50.922;6.704;2023-05-01T10:14:17;4.17;;;1.50;;
2860;SDS011;1438;50.922;6.704;2023-05-01T10:16:44;2.33;;;1.87;;
2860;SDS011;1438;50.922;6.704;2023-05-01T10:19:10;2.10;;;1.63;;
2860;SDS011;1438;50.922;6.704;2023-05-01T10:21:37;1.83;;;1.73;;
2860;SDS011;1438;50.922;6.704;2023-05-01T10:24:03;2.03;;;1.83;;
2860;SDS011;1438;50.922;6.704;2023-05-01T10:26:33;2.60;;;2.40;;
2860;SDS011;1438;50.922;6.704;2023-05-01T10:28:59;2.73;;;1.90;;
2860;SDS011;1438;50.922;6.704;2023-05-01T10:31:26;3.00;;;2.10;;
2860;SDS011;1438;50.922;6.704;2023-05-01T10:33:53;1.73;;;1.63;;
2860;SDS011;1438;50.922;6.704;2023-05-01T10:36:20;4.83;;;2.03;;
2860;SDS011;1438;50.922;6.704;2023-05-01T10:38:47;2.63;;;2.40;;
2860;SDS011;1438;50.922;6.704;2023-05-01T10:41:14;5.67;;;2.30;;
2860;SDS011;1438;50.922;6.704;2023-05-01T10:43:41;3.40;;;2.20;;
2860;SDS011;1438;50.922;6.704;2023-05-01T10:48:54;2.70;;;2.50;;
2860;SDS011;1438;50.922;6.704;2023-05-01T10:51:23;2.87;;;2.60;;
2860;SDS011;1438;50.922;6.704;2023-05-01T10:56:39;2.53;;;2.27;;
2860;SDS011;1438;50.922;6.704;2023-05-01T10:59:05;4.20;;;2.03;;
2860;SDS011;1438;50.922;6.704;2023-05-01T11:03:58;2.80;;;2.30;;
2860;SDS011;1438;50.922;6.704;2023-05-01T11:06:24;2.93;;;2.40;;
2860;SDS011;1438;50.922;6.704;2023-05-01T11:08:50;7.03;;;2.10;;
2860;SDS011;1438;50.922;6.704;2023-05-01T11:14:05;3.00;;;2.50;;
2860;SDS011;1438;50.922;6.704;2023-05-01T11:19:05;3.07;;;2.77;;
2860;SDS011;1438;50.922;6.704;2023-05-01T11:21:32;3.53;;;3.00;;
2860;SDS011;1438;50.922;6.704;2023-05-01T11:23:59;5.30;;;3.10;;
2860;SDS011;1438;50.922;6.704;2023-05-01T11:26:26;3.10;;;2.70;;
2860;SDS011;1438;50.922;6.704;2023-05-01T11:28:53;4.77;;;2.40;;
2860;SDS011;1438;50.922;6.704;2023-05-01T11:31:20;3.00;;;2.70;;
2860;SDS011;1438;50.922;6.704;2023-05-01T11:33:46;3.30;;;3.00;;
2860;SDS011;1438;50.922;6.704;2023-05-01T11:36:12;4.43;;;2.90;;
2860;SDS011;1438;50.922;6.704;2023-05-01T11:38:48;3.27;;;2.83;;
2860;SDS011;1438;50.922;6.704;2023-05-01T11:41:15;6.40;;;2.90;;
2860;SDS011;1438;50.922;6.704;2023-05-01T11:43:56;3.27;;;2.97;;
2860;SDS011;1438;50.922;6.704;2023-05-01T11:46:22;4.10;;;3.37;;
2860;SDS011;1438;50.922;6.704;2023-05-01T11:48:49;3.20;;;3.00;;
2860;SDS011;1438;50.922;6.704;2023-05-01T11:51:16;5.53;;;3.30;;
2860;SDS011;1438;50.922;6.704;2023-05-01T11:53:56;3.77;;;3.47;;
2860;SDS011;1438;50.922;6.704;2023-05-01T11:56:22;3.90;;;3.50;;
2860;SDS011;1438;50.922;6.704;2023-05-01T11:58:48;5.30;;;3.30;;
2860;SDS011;1438;50.922;6.704;2023-05-01T12:01:14;4.10;;;2.93;;
2860;SDS011;1438;50.922;6.704;2023-05-01T12:03:41;2.73;;;2.53;;
2860;SDS011;1438;50.922;6.704;2023-05-01T12:06:08;2.83;;;2.57;;
2860;SDS011;1438;50.922;6.704;2023-05-01T12:08:35;3.50;;;2.50;;
2860;SDS011;1438;50.922;6.704;2023-05-01T12:11:01;3.93;;;3.30;;
2860;SDS011;1438;50.922;6.704;2023-05-01T12:13:27;2.93;;;2.67;;
2860;SDS011;1438;50.922;6.704;2023-05-01T12:15:54;2.53;;;2.30;;
2860;SDS011;1438;50.922;6.704;2023-05-01T12:18:20;2.50;;;2.30;;
2860;SDS011;1438;50.922;6.704;2023-05-01T12:20:48;6.03;;;2.80;;
2860;SDS011;1438;50.922;6.704;2023-05-01T12:23:16;6.20;;;3.07;;
2860;SDS011;1438;50.922;6.704;2023-05-01T12:25:42;2.50;;;2.20;;
2860;SDS011;1438;50.922;6.704;2023-05-01T12:28:10;3.30;;;2.00;;
2860;SDS011;1438;50.922;6.704;2023-05-01T12:30:37;3.57;;;2.20;;
2860;SDS011;1438;50.922;6.704;2023-05-01T12:35:35;2.07;;;1.87;;
2860;SDS011;1438;50.922;6.704;2023-05-01T12:38:08;2.40;;;2.20;;
2860;SDS011;1438;50.922;6.704;2023-05-01T12:40:35;3.00;;;1.80;;
2860;SDS011;1438;50.922;6.704;2023-05-01T12:43:01;2.00;;;1.37;;
2860;SDS011;1438;50.922;6.704;2023-05-01T12:45:27;1.37;;;1.27;;
2860;SDS011;1438;50.922;6.704;2023-05-01T12:47:53;2.60;;;1.40;;
2860;SDS011;1438;50.922;6.704;2023-05-01T12:50:19;1.37;;;1.00;;
2860;SDS011;1438;50.922;6.704;2023-05-01T12:52:46;2.57;;;1.50;;
2860;SDS011;1438;50.922;6.704;2023-05-01T12:55:12;1.83;;;1.73;;
2860;SDS011;1438;50.922;6.704;2023-05-01T12:57:53;1.93;;;1.60;;
2860;SDS011;1438;50.922;6.704;2023-05-01T13:00:20;2.23;;;1.30;;
2860;SDS011;1438;50.922;6.704;2023-05-01T13:02:46;2.40;;;1.57;;
2860;SDS011;1438;50.922;6.704;2023-05-01T13:05:13;3.37;;;2.20;;
2860;SDS011;1438;50.922;6.704;2023-05-01T13:07:40;4.50;;;2.10;;
2860;SDS011;1438;50.922;6.704;2023-05-01T13:10:12;3.47;;;2.07;;
2860;SDS011;1438;50.922;6.704;2023-05-01T13:12:42;3.40;;;1.93;;
2860;SDS011;1438;50.922;6.704;2023-05-01T13:15:17;1.60;;;1.50;;
2860;SDS011;1438;50.922;6.704;2023-05-01T13:17:43;3.23;;;1.80;;
2860;SDS011;1438;50.922;6.704;2023-05-01T13:20:09;2.60;;;2.07;;
2860;SDS011;1438;50.922;6.704;2023-05-01T13:22:36;3.13;;;2.50;;
2860;SDS011;1438;50.922;6.704;2023-05-01T13:25:02;3.27;;;2.70;;
2860;SDS011;1438;50.922;6.704;2023-05-01T13:27:29;3.07;;;2.87;;
2860;SDS011;1438;50.922;6.704;2023-05-01T13:29:57;4.90;;;3.10;;
2860;SDS011;1438;50.922;6.704;2023-05-01T13:32:24;5.30;;;2.47;;
2860;SDS011;1438;50.922;6.704;2023-05-01T13:34:50;5.30;;;2.63;;
2860;SDS011;1438;50.922;6.704;2023-05-01T13:37:18;3.13;;;2.80;;
2860;SDS011;1438;50.922;6.704;2023-05-01T13:39:45;3.27;;;2.40;;
2860;SDS011;1438;50.922;6.704;2023-05-01T13:42:11;3.47;;;2.50;;
2860;SDS011;1438;50.922;6.704;2023-05-01T13:44:47;4.40;;;2.50;;
2860;SDS011;1438;50.922;6.704;2023-05-01T13:47:15;2.83;;;2.53;;
2860;SDS011;1438;50.922;6.704;2023-05-01T13:49:41;3.60;;;2.10;;
2860;SDS011;1438;50.922;6.704;2023-05-01T13:52:11;5.40;;;3.07;;
2860;SDS011;1438;50.922;6.704;2023-05-01T13:54:40;13.63;;;2.83;;
2860;SDS011;1438;50.922;6.704;2023-05-01T13:57:07;7.10;;;3.30;;
2860;SDS011;1438;50.922;6.704;2023-05-01T13:59:43;4.27;;;3.60;;
2860;SDS011;1438;50.922;6.704;2023-05-01T14:02:16;4.73;;;3.80;;
2860;SDS011;1438;50.922;6.704;2023-05-01T14:04:46;5.40;;;4.10;;
2860;SDS011;1438;50.922;6.704;2023-05-01T14:07:19;3.57;;;3.23;;
2860;SDS011;1438;50.922;6.704;2023-05-01T14:10:03;2.83;;;2.63;;
2860;SDS011;1438;50.922;6.704;2023-05-01T14:12:33;3.00;;;2.70;;
2860;SDS011;1438;50.922;6.704;2023-05-01T14:14:59;4.33;;;2.73;;
2860;SDS011;1438;50.922;6.704;2023-05-01T14:17:30;5.10;;;3.63;;
2860;SDS011;1438;50.922;6.704;2023-05-01T14:19:56;3.90;;;3.50;;
2860;SDS011;1438;50.922;6.704;2023-05-01T14:22:22;6.53;;;3.60;;
2860;SDS011;1438;50.922;6.704;2023-05-01T14:24:48;5.43;;;4.73;;
2860;SDS011;1438;50.922;6.704;2023-05-01T14:27:15;8.87;;;5.73;;
2860;SDS011;1438;50.922;6.704;2023-05-01T14:29:41;7.20;;;4.70;;
2860;SDS011;1438;50.922;6.704;2023-05-01T14:32:10;9.73;;;5.60;;
2860;SDS011;1438;50.922;6.704;2023-05-01T14:34:41;5.77;;;4.50;;
2860;SDS011;1438;50.922;6.704;2023-05-01T14:37:10;4.40;;;4.07;;
2860;SDS011;1438;50.922;6.704;2023-05-01T14:39:38;7.23;;;4.50;;
2860;SDS011;1438;50.922;6.704;2023-05-01T14:42:05;4.83;;;4.33;;
2860;SDS011;1438;50.922;6.704;2023-05-01T14:44:31;5.30;;;4.70;;
2860;SDS011;1438;50.922;6.704;2023-05-01T14:46:57;7.50;;;5.30;;
2860;SDS011;1438;50.922;6.704;2023-05-01T14:49:24;5.83;;;5.23;;
2860;SDS011;1438;50.922;6.704;2023-05-01T14:51:50;8.47;;;6.10;;
2860;SDS011;1438;50.922;6.704;2023-05-01T14:54:17;6.63;;;6.00;;
2860;SDS011;1438;50.922;6.704;2023-05-01T14:56:43;9.93;;;7.00;;
2860;SDS011;1438;50.922;6.704;2023-05-01T14:59:09;7.83;;;7.03;;
2860;SDS011;1438;50.922;6.704;2023-05-01T15:01:36;12.53;;;8.43;;
2860;SDS011;1438;50.922;6.704;2023-05-01T15:04:02;9.57;;;8.23;;
2860;SDS011;1438;50.922;6.704;2023-05-01T15:06:30;15.17;;;10.97;;
2860;SDS011;1438;50.922;6.704;2023-05-01T15:08:56;17.95;;;9.18;;
2860;SDS011;1438;50.922;6.704;2023-05-01T15:11:22;19.40;;;11.10;;
2860;SDS011;1438;50.922;6.704;2023-05-01T15:13:48;30.43;;;15.50;;
2860;SDS011;1438;50.922;6.704;2023-05-01T15:16:14;15.47;;;14.00;;
2860;SDS011;1438;50.922;6.704;2023-05-01T15:18:41;32.57;;;18.27;;
2860;SDS011;1438;50.922;6.704;2023-05-01T15:21:07;16.93;;;12.93;;
2860;SDS011;1438;50.922;6.704;2023-05-01T15:23:33;12.53;;;10.40;;
2860;SDS011;1438;50.922;6.704;2023-05-01T15:26:00;16.93;;;7.97;;
2860;SDS011;1438;50.922;6.704;2023-05-01T15:28:27;7.87;;;6.93;;
2860;SDS011;1438;50.922;6.704;2023-05-01T15:30:53;113.33;;;13.33;;
2860;SDS011;1438;50.922;6.704;2023-05-01T15:33:20;25.40;;;7.37;;
2860;SDS011;1438;50.922;6.704;2023-05-01T15:35:46;7.20;;;6.30;;
2860;SDS011;1438;50.922;6.704;2023-05-01T15:38:14;6.47;;;5.77;;
2860;SDS011;1438;50.922;6.704;2023-05-01T15:40:41;4.93;;;3.90;;
2860;SDS011;1438;50.922;6.704;2023-05-01T15:43:07;7.17;;;4.33;;